sensor_id;sensor_type;location;lat;lon;timestamp;temperature;humidity
32600;DHT22;19277;51.778;7.912;2023-06-04T00:02:13;19.20;54.90
32600;DHT22;19277;51.778;7.912;2023-06-04T00:04:39;19.30;55.30
32600;DHT22;19277;51.778;7.912;2023-06-04T00:07:05;19.20;55.20
32600;DHT22;19277;51.778;7.912;2023-06-04T00:09:31;19.20;55.20
32600;DHT22;19277;51.778;7.912;2023-06-04T00:11:56;19.20;55.30
32600;DHT22;19277;51.778;7.912;2023-06-04T00:14:22;19.30;55.40
32600;DHT22;19277;51.778;7.912;2023-06-04T00:16:48;19.20;55.40
32600;DHT22;19277;51.778;7.912;2023-06-04T00:19:13;19.30;55.50
32600;DHT22;19277;51.778;7.912;2023-06-04T00:21:39;19.40;55.40
32600;DHT22;19277;51.778;7.912;2023-06-04T00:24:05;19.40;55.30
32600;DHT22;19277;51.778;7.912;2023-06-04T00:26:31;19.50;55.40
32600;DHT22;19277;51.778;7.912;2023-06-04T00:28:56;19.40;55.30
32600;DHT22;19277;51.778;7.912;2023-06-04T00:31:22;19.50;55.40
32600;DHT22;19277;51.778;7.912;2023-06-04T00:33:48;19.50;55.30
32600;DHT22;19277;51.778;7.912;2023-06-04T00:36:14;19.60;55.60
32600;DHT22;19277;51.778;7.912;2023-06-04T00:38:39;19.50;55.50
32600;DHT22;19277;51.778;7.912;2023-06-04T00:41:05;19.50;56.20
32600;DHT22;19277;51.778;7.912;2023-06-04T00:43:30;19.50;56.00
32600;DHT22;19277;51.778;7.912;2023-06-04T00:45:58;19.50;56.10
32600;DHT22;19277;51.778;7.912;2023-06-04T00:48:24;19.50;56.20
32600;DHT22;19277;51.778;7.912;2023-06-04T00:50:50;19.40;56.20
32600;DHT22;19277;51.778;7.912;2023-06-04T00:53:16;19.50;56.30
32600;DHT22;19277;51.778;7.912;2023-06-04T00:55:42;19.50;56.40
32600;DHT22;19277;51.778;7.912;2023-06-04T00:58:08;19.50;56.50
32600;DHT22;19277;51.778;7.912;2023-06-04T01:00:35;19.50;56.50
32600;DHT22;19277;51.778;7.912;2023-06-04T01:03:04;19.40;56.70
32600;DHT22;19277;51.778;7.912;2023-06-04T01:07:57;19.40;56.80
32600;DHT22;19277;51.778;7.912;2023-06-04T01:10:23;19.50;56.90
32600;DHT22;19277;51.778;7.912;2023-06-04T01:12:49;19.50;56.90
32600;DHT22;19277;51.778;7.912;2023-06-04T01:15:14;19.50;57.00
32600;DHT22;19277;51.778;7.912;2023-06-04T01:17:43;19.50;57.00
32600;DHT22;19277;51.778;7.912;2023-06-04T01:27:55;19.70;56.80
32600;DHT22;19277;51.778;7.912;2023-06-04T01:30:28;19.80;56.90
32600;DHT22;19277;51.778;7.912;2023-06-04T01:32:55;19.70;57.10
32600;DHT22;19277;51.778;7.912;2023-06-04T01:35:22;19.70;57.30
32600;DHT22;19277;51.778;7.912;2023-06-04T01:37:48;19.70;57.40
32600;DHT22;19277;51.778;7.912;2023-06-04T01:40:14;19.60;57.40
32600;DHT22;19277;51.778;7.912;2023-06-04T01:42:41;19.60;57.50
32600;DHT22;19277;51.778;7.912;2023-06-04T01:45:07;19.60;57.90
32600;DHT22;19277;51.778;7.912;2023-06-04T01:47:33;19.50;57.70
32600;DHT22;19277;51.778;7.912;2023-06-04T01:50:00;19.60;57.60
32600;DHT22;19277;51.778;7.912;2023-06-04T01:52:25;19.70;57.60
32600;DHT22;19277;51.778;7.912;2023-06-04T01:54:52;19.70;57.70
32600;DHT22;19277;51.778;7.912;2023-06-04T01:57:24;19.60;57.80
32600;DHT22;19277;51.778;7.912;2023-06-04T01:59:49;19.60;58.10
32600;DHT22;19277;51.778;7.912;2023-06-04T02:02:16;19.50;57.90
32600;DHT22;19277;51.778;7.912;2023-06-04T02:04:42;19.50;58.00
32600;DHT22;19277;51.778;7.912;2023-06-04T02:07:11;19.50;58.20
32600;DHT22;19277;51.778;7.912;2023-06-04T02:09:39;19.50;58.20
32600;DHT22;19277;51.778;7.912;2023-06-04T02:12:05;19.40;58.30
32600;DHT22;19277;51.778;7.912;2023-06-04T02:14:31;19.50;58.30
32600;DHT22;19277;51.778;7.912;2023-06-04T02:16:57;19.50;58.20
32600;DHT22;19277;51.778;7.912;2023-06-04T02:19:26;19.50;58.20
32600;DHT22;19277;51.778;7.912;2023-06-04T02:21:55;19.40;58.40
32600;DHT22;19277;51.778;7.912;2023-06-04T02:24:21;19.40;58.40
32600;DHT22;19277;51.778;7.912;2023-06-04T02:26:47;19.40;58.40
32600;DHT22;19277;51.778;7.912;2023-06-04T02:29:12;19.30;58.30
32600;DHT22;19277;51.778;7.912;2023-06-04T02:31:38;19.30;58.20
32600;DHT22;19277;51.778;7.912;2023-06-04T02:34:03;19.30;58.50
32600;DHT22;19277;51.778;7.912;2023-06-04T02:36:29;19.20;58.40
32600;DHT22;19277;51.778;7.912;2023-06-04T02:38:55;19.20;58.50
32600;DHT22;19277;51.778;7.912;2023-06-04T02:41:21;19.30;58.90
32600;DHT22;19277;51.778;7.912;2023-06-04T02:43:47;19.20;59.00
32600;DHT22;19277;51.778;7.912;2023-06-04T02:46:13;19.20;58.90
32600;DHT22;19277;51.778;7.912;2023-06-04T02:48:38;19.20;58.80
32600;DHT22;19277;51.778;7.912;2023-06-04T02:51:04;19.20;58.90
32600;DHT22;19277;51.778;7.912;2023-06-04T02:53:30;19.20;59.10
32600;DHT22;19277;51.778;7.912;2023-06-04T02:55:56;19.10;59.10
32600;DHT22;19277;51.778;7.912;2023-06-04T02:58:22;19.10;59.40
32600;DHT22;19277;51.778;7.912;2023-06-04T03:00:52;19.10;59.20
32600;DHT22;19277;51.778;7.912;2023-06-04T03:03:17;19.10;59.50
32600;DHT22;19277;51.778;7.912;2023-06-04T03:05:43;19.10;59.30
32600;DHT22;19277;51.778;7.912;2023-06-04T03:08:09;19.10;59.50
32600;DHT22;19277;51.778;7.912;2023-06-04T03:10:34;19.10;59.40
32600;DHT22;19277;51.778;7.912;2023-06-04T03:13:00;19.20;59.40
32600;DHT22;19277;51.778;7.912;2023-06-04T03:15:25;19.20;59.40
32600;DHT22;19277;51.778;7.912;2023-06-04T03:17:51;19.20;59.40
32600;DHT22;19277;51.778;7.912;2023-06-04T03:20:17;19.20;59.40
32600;DHT22;19277;51.778;7.912;2023-06-04T03:22:42;19.20;59.30
32600;DHT22;19277;51.778;7.912;2023-06-04T03:25:08;19.20;59.20
32600;DHT22;19277;51.778;7.912;2023-06-04T03:27:34;19.20;59.40
32600;DHT22;19277;51.778;7.912;2023-06-04T03:30:00;19.20;59.60
32600;DHT22;19277;51.778;7.912;2023-06-04T03:32:25;19.10;59.50
32600;DHT22;19277;51.778;7.912;2023-06-04T03:34:51;19.20;59.40
32600;DHT22;19277;51.778;7.912;2023-06-04T03:37:17;19.20;59.30
32600;DHT22;19277;51.778;7.912;2023-06-04T03:39:42;19.20;59.20
32600;DHT22;19277;51.778;7.912;2023-06-04T03:42:08;19.20;59.20
32600;DHT22;19277;51.778;7.912;2023-06-04T03:44:34;19.20;59.10
32600;DHT22;19277;51.778;7.912;2023-06-04T03:46:59;19.20;59.10
32600;DHT22;19277;51.778;7.912;2023-06-04T03:49:25;19.20;59.10
32600;DHT22;19277;51.778;7.912;2023-06-04T03:51:51;19.20;59.10
32600;DHT22;19277;51.778;7.912;2023-06-04T03:56:51;19.20;59.10
32600;DHT22;19277;51.778;7.912;2023-06-04T03:59:17;19.30;59.10
32600;DHT22;19277;51.778;7.912;2023-06-04T04:01:43;19.30;58.80
32600;DHT22;19277;51.778;7.912;2023-06-04T04:04:09;19.30;58.90
32600;DHT22;19277;51.778;7.912;2023-06-04T04:06:35;19.40;58.90
32600;DHT22;19277;51.778;7.912;2023-06-04T04:09:02;19.40;58.80
32600;DHT22;19277;51.778;7.912;2023-06-04T04:11:28;19.50;58.60
32600;DHT22;19277;51.778;7.912;2023-06-04T04:13:54;19.60;58.60
32600;DHT22;19277;51.778;7.912;2023-06-04T04:16:20;19.70;58.40
32600;DHT22;19277;51.778;7.912;2023-06-04T04:18:45;19.80;58.30
32600;DHT22;19277;51.778;7.912;2023-06-04T04:21:11;19.90;58.10
32600;DHT22;19277;51.778;7.912;2023-06-04T04:23:38;20.00;58.00
32600;DHT22;19277;51.778;7.912;2023-06-04T04:26:09;20.00;58.00
32600;DHT22;19277;51.778;7.912;2023-06-04T04:28:35;20.10;57.70
32600;DHT22;19277;51.778;7.912;2023-06-04T04:31:01;20.20;57.60
32600;DHT22;19277;51.778;7.912;2023-06-04T04:33:28;20.20;57.40
32600;DHT22;19277;51.778;7.912;2023-06-04T04:36:00;20.30;57.50
32600;DHT22;19277;51.778;7.912;2023-06-04T04:38:26;20.40;57.30
32600;DHT22;19277;51.778;7.912;2023-06-04T04:40:54;20.60;57.20
32600;DHT22;19277;51.778;7.912;2023-06-04T04:43:32;20.70;56.90
32600;DHT22;19277;51.778;7.912;2023-06-04T04:45:58;20.70;56.70
32600;DHT22;19277;51.778;7.912;2023-06-04T04:48:24;20.80;56.50
32600;DHT22;19277;51.778;7.912;2023-06-04T04:50:51;20.90;56.60
32600;DHT22;19277;51.778;7.912;2023-06-04T04:53:16;21.00;56.50
32600;DHT22;19277;51.778;7.912;2023-06-04T04:55:42;21.10;56.50
32600;DHT22;19277;51.778;7.912;2023-06-04T04:58:07;21.10;56.90
32600;DHT22;19277;51.778;7.912;2023-06-04T05:00:33;21.20;56.30
32600;DHT22;19277;51.778;7.912;2023-06-04T05:02:59;21.30;56.20
32600;DHT22;19277;51.778;7.912;2023-06-04T05:05:24;21.40;56.10
32600;DHT22;19277;51.778;7.912;2023-06-04T05:07:50;21.50;55.90
32600;DHT22;19277;51.778;7.912;2023-06-04T05:10:15;21.60;55.60
32600;DHT22;19277;51.778;7.912;2023-06-04T05:12:56;21.60;55.40
32600;DHT22;19277;51.778;7.912;2023-06-04T05:15:23;21.70;55.50
32600;DHT22;19277;51.778;7.912;2023-06-04T05:17:49;21.70;55.20
32600;DHT22;19277;51.778;7.912;2023-06-04T05:20:18;21.80;55.40
32600;DHT22;19277;51.778;7.912;2023-06-04T05:22:44;21.80;55.20
32600;DHT22;19277;51.778;7.912;2023-06-04T05:25:11;21.90;55.20
32600;DHT22;19277;51.778;7.912;2023-06-04T05:27:37;22.00;55.20
32600;DHT22;19277;51.778;7.912;2023-06-04T05:30:03;22.00;54.90
32600;DHT22;19277;51.778;7.912;2023-06-04T05:32:29;22.10;55.30
32600;DHT22;19277;51.778;7.912;2023-06-04T05:34:57;22.10;55.10
32600;DHT22;19277;51.778;7.912;2023-06-04T05:37:23;22.20;55.10
32600;DHT22;19277;51.778;7.912;2023-06-04T05:39:50;22.30;55.00
32600;DHT22;19277;51.778;7.912;2023-06-04T05:42:15;22.30;54.80
32600;DHT22;19277;51.778;7.912;2023-06-04T05:44:41;22.40;54.70
32600;DHT22;19277;51.778;7.912;2023-06-04T05:47:06;22.40;54.70
32600;DHT22;19277;51.778;7.912;2023-06-04T05:49:34;22.40;54.60
32600;DHT22;19277;51.778;7.912;2023-06-04T05:52:00;22.50;54.40
32600;DHT22;19277;51.778;7.912;2023-06-04T05:54:26;22.60;54.10
32600;DHT22;19277;51.778;7.912;2023-06-04T05:56:52;22.60;54.00
32600;DHT22;19277;51.778;7.912;2023-06-04T05:59:18;22.60;53.80
32600;DHT22;19277;51.778;7.912;2023-06-04T06:01:43;22.70;53.90
32600;DHT22;19277;51.778;7.912;2023-06-04T06:04:09;22.70;53.80
32600;DHT22;19277;51.778;7.912;2023-06-04T06:06:36;22.80;53.80
32600;DHT22;19277;51.778;7.912;2023-06-04T06:09:01;22.80;53.50
32600;DHT22;19277;51.778;7.912;2023-06-04T06:11:27;22.80;53.80
32600;DHT22;19277;51.778;7.912;2023-06-04T06:13:53;22.90;54.00
32600;DHT22;19277;51.778;7.912;2023-06-04T06:16:18;22.90;54.00
32600;DHT22;19277;51.778;7.912;2023-06-04T06:18:44;23.00;53.80
32600;DHT22;19277;51.778;7.912;2023-06-04T06:21:10;23.00;53.50
32600;DHT22;19277;51.778;7.912;2023-06-04T06:23:36;23.00;54.00
32600;DHT22;19277;51.778;7.912;2023-06-04T06:26:02;23.00;53.50
32600;DHT22;19277;51.778;7.912;2023-06-04T06:28:28;23.00;53.30
32600;DHT22;19277;51.778;7.912;2023-06-04T06:30:54;23.00;53.60
32600;DHT22;19277;51.778;7.912;2023-06-04T06:33:20;23.10;53.40
32600;DHT22;19277;51.778;7.912;2023-06-04T06:35:47;23.10;53.10
32600;DHT22;19277;51.778;7.912;2023-06-04T06:38:13;23.10;53.30
32600;DHT22;19277;51.778;7.912;2023-06-04T06:40:40;23.10;53.30
32600;DHT22;19277;51.778;7.912;2023-06-04T06:43:05;23.10;53.20
32600;DHT22;19277;51.778;7.912;2023-06-04T06:45:31;23.20;53.10
32600;DHT22;19277;51.778;7.912;2023-06-04T06:47:56;23.20;53.20
32600;DHT22;19277;51.778;7.912;2023-06-04T06:50:22;23.30;53.00
32600;DHT22;19277;51.778;7.912;2023-06-04T06:52:48;23.40;52.60
32600;DHT22;19277;51.778;7.912;2023-06-04T06:55:14;23.50;52.50
32600;DHT22;19277;51.778;7.912;2023-06-04T06:57:39;23.50;52.50
32600;DHT22;19277;51.778;7.912;2023-06-04T07:00:05;23.60;51.90
32600;DHT22;19277;51.778;7.912;2023-06-04T07:02:31;23.60;51.40
32600;DHT22;19277;51.778;7.912;2023-06-04T07:04:57;23.50;51.60
32600;DHT22;19277;51.778;7.912;2023-06-04T07:07:22;23.50;51.80
32600;DHT22;19277;51.778;7.912;2023-06-04T07:09:48;23.50;51.10
32600;DHT22;19277;51.778;7.912;2023-06-04T07:12:14;23.60;51.40
32600;DHT22;19277;51.778;7.912;2023-06-04T07:14:39;23.60;50.80
32600;DHT22;19277;51.778;7.912;2023-06-04T07:17:05;23.60;51.20
32600;DHT22;19277;51.778;7.912;2023-06-04T07:19:30;23.60;50.90
32600;DHT22;19277;51.778;7.912;2023-06-04T07:21:56;23.60;51.60
32600;DHT22;19277;51.778;7.912;2023-06-04T07:24:22;23.60;51.50
32600;DHT22;19277;51.778;7.912;2023-06-04T07:26:48;23.60;51.10
32600;DHT22;19277;51.778;7.912;2023-06-04T07:29:13;23.60;50.90
32600;DHT22;19277;51.778;7.912;2023-06-04T07:31:40;23.60;51.00
32600;DHT22;19277;51.778;7.912;2023-06-04T07:34:06;23.70;51.30
32600;DHT22;19277;51.778;7.912;2023-06-04T07:36:31;23.70;51.60
32600;DHT22;19277;51.778;7.912;2023-06-04T07:38:58;23.60;51.80
32600;DHT22;19277;51.778;7.912;2023-06-04T07:41:24;23.60;50.90
32600;DHT22;19277;51.778;7.912;2023-06-04T07:43:51;23.60;51.10
32600;DHT22;19277;51.778;7.912;2023-06-04T07:46:17;23.50;51.70
32600;DHT22;19277;51.778;7.912;2023-06-04T07:48:44;23.60;51.90
32600;DHT22;19277;51.778;7.912;2023-06-04T07:51:10;23.60;52.00
32600;DHT22;19277;51.778;7.912;2023-06-04T07:53:37;23.60;50.90
32600;DHT22;19277;51.778;7.912;2023-06-04T07:56:03;23.50;51.30
32600;DHT22;19277;51.778;7.912;2023-06-04T07:58:29;23.40;51.00
32600;DHT22;19277;51.778;7.912;2023-06-04T08:00:55;23.40;51.70
32600;DHT22;19277;51.778;7.912;2023-06-04T08:03:21;23.40;51.20
32600;DHT22;19277;51.778;7.912;2023-06-04T08:05:47;23.30;51.60
32600;DHT22;19277;51.778;7.912;2023-06-04T08:08:12;23.30;51.10
32600;DHT22;19277;51.778;7.912;2023-06-04T08:10:39;23.30;51.90
32600;DHT22;19277;51.778;7.912;2023-06-04T08:13:05;23.20;51.60
32600;DHT22;19277;51.778;7.912;2023-06-04T08:15:31;23.20;52.10
32600;DHT22;19277;51.778;7.912;2023-06-04T08:17:56;23.20;51.80
32600;DHT22;19277;51.778;7.912;2023-06-04T08:20:23;23.20;51.70
32600;DHT22;19277;51.778;7.912;2023-06-04T08:22:48;23.10;52.60
32600;DHT22;19277;51.778;7.912;2023-06-04T08:25:14;23.10;52.70
32600;DHT22;19277;51.778;7.912;2023-06-04T08:27:41;23.10;52.50
32600;DHT22;19277;51.778;7.912;2023-06-04T08:30:07;23.10;52.90
32600;DHT22;19277;51.778;7.912;2023-06-04T08:32:33;23.10;53.00
32600;DHT22;19277;51.778;7.912;2023-06-04T08:34:59;23.00;52.10
32600;DHT22;19277;51.778;7.912;2023-06-04T08:37:25;23.00;52.70
32600;DHT22;19277;51.778;7.912;2023-06-04T08:39:51;22.90;52.50
32600;DHT22;19277;51.778;7.912;2023-06-04T08:42:30;22.90;54.00
32600;DHT22;19277;51.778;7.912;2023-06-04T08:44:58;22.90;53.60
32600;DHT22;19277;51.778;7.912;2023-06-04T08:47:25;22.90;53.00
32600;DHT22;19277;51.778;7.912;2023-06-04T08:49:52;22.90;52.70
32600;DHT22;19277;51.778;7.912;2023-06-04T08:52:18;22.80;52.10
32600;DHT22;19277;51.778;7.912;2023-06-04T08:54:49;22.80;52.30
32600;DHT22;19277;51.778;7.912;2023-06-04T08:57:17;22.80;52.10
32600;DHT22;19277;51.778;7.912;2023-06-04T08:59:45;22.80;51.30
32600;DHT22;19277;51.778;7.912;2023-06-04T09:02:11;22.70;51.70
32600;DHT22;19277;51.778;7.912;2023-06-04T09:04:39;22.60;50.70
32600;DHT22;19277;51.778;7.912;2023-06-04T09:07:06;22.60;50.80
32600;DHT22;19277;51.778;7.912;2023-06-04T09:09:32;22.60;51.00
32600;DHT22;19277;51.778;7.912;2023-06-04T09:12:01;22.60;51.10
32600;DHT22;19277;51.778;7.912;2023-06-04T09:14:28;22.60;51.30
32600;DHT22;19277;51.778;7.912;2023-06-04T09:16:56;22.70;51.10
32600;DHT22;19277;51.778;7.912;2023-06-04T09:19:24;22.70;50.80
32600;DHT22;19277;51.778;7.912;2023-06-04T09:21:57;22.60;51.20
32600;DHT22;19277;51.778;7.912;2023-06-04T09:24:24;22.60;51.20
32600;DHT22;19277;51.778;7.912;2023-06-04T09:26:51;22.60;50.70
32600;DHT22;19277;51.778;7.912;2023-06-04T09:29:17;22.60;50.60
32600;DHT22;19277;51.778;7.912;2023-06-04T09:31:47;22.60;49.80
32600;DHT22;19277;51.778;7.912;2023-06-04T09:34:27;22.60;50.20
32600;DHT22;19277;51.778;7.912;2023-06-04T09:36:53;22.70;49.00
32600;DHT22;19277;51.778;7.912;2023-06-04T09:39:19;22.70;48.80
32600;DHT22;19277;51.778;7.912;2023-06-04T09:41:45;22.70;49.00
32600;DHT22;19277;51.778;7.912;2023-06-04T09:44:22;22.80;48.80
32600;DHT22;19277;51.778;7.912;2023-06-04T09:46:54;22.80;49.30
32600;DHT22;19277;51.778;7.912;2023-06-04T09:49:20;22.80;48.50
32600;DHT22;19277;51.778;7.912;2023-06-04T09:51:49;22.80;48.20
32600;DHT22;19277;51.778;7.912;2023-06-04T09:54:15;22.80;49.10
32600;DHT22;19277;51.778;7.912;2023-06-04T09:56:41;22.80;49.10
32600;DHT22;19277;51.778;7.912;2023-06-04T09:59:09;22.80;49.00
32600;DHT22;19277;51.778;7.912;2023-06-04T10:01:39;22.70;48.70
32600;DHT22;19277;51.778;7.912;2023-06-04T10:04:07;22.70;49.60
32600;DHT22;19277;51.778;7.912;2023-06-04T10:06:35;22.70;47.90
32600;DHT22;19277;51.778;7.912;2023-06-04T10:09:07;22.70;49.50
32600;DHT22;19277;51.778;7.912;2023-06-04T10:11:44;22.80;50.10
32600;DHT22;19277;51.778;7.912;2023-06-04T10:14:23;22.80;49.30
32600;DHT22;19277;51.778;7.912;2023-06-04T10:16:51;22.80;49.90
32600;DHT22;19277;51.778;7.912;2023-06-04T10:19:18;22.80;49.50
32600;DHT22;19277;51.778;7.912;2023-06-04T10:21:44;22.90;49.50
32600;DHT22;19277;51.778;7.912;2023-06-04T10:24:12;22.90;49.30
32600;DHT22;19277;51.778;7.912;2023-06-04T10:26:38;22.90;48.00
32600;DHT22;19277;51.778;7.912;2023-06-04T10:29:05;22.90;48.50
32600;DHT22;19277;51.778;7.912;2023-06-04T10:31:32;22.90;47.10
32600;DHT22;19277;51.778;7.912;2023-06-04T10:33:58;22.90;48.00
32600;DHT22;19277;51.778;7.912;2023-06-04T10:36:24;22.90;47.10
32600;DHT22;19277;51.778;7.912;2023-06-04T10:38:52;22.90;48.10
32600;DHT22;19277;51.778;7.912;2023-06-04T10:41:19;22.90;48.10
32600;DHT22;19277;51.778;7.912;2023-06-04T10:43:47;22.90;48.20
32600;DHT22;19277;51.778;7.912;2023-06-04T10:46:18;23.00;48.30
32600;DHT22;19277;51.778;7.912;2023-06-04T10:48:51;23.00;49.00
32600;DHT22;19277;51.778;7.912;2023-06-04T10:51:29;23.00;49.00
32600;DHT22;19277;51.778;7.912;2023-06-04T10:53:58;23.00;48.60
32600;DHT22;19277;51.778;7.912;2023-06-04T10:56:28;23.10;48.70
32600;DHT22;19277;51.778;7.912;2023-06-04T10:58:54;23.00;49.10
32600;DHT22;19277;51.778;7.912;2023-06-04T11:01:29;23.10;48.10
32600;DHT22;19277;51.778;7.912;2023-06-04T11:03:57;23.00;48.70
32600;DHT22;19277;51.778;7.912;2023-06-04T11:06:23;23.10;47.90
32600;DHT22;19277;51.778;7.912;2023-06-04T11:09:05;23.10;47.90
32600;DHT22;19277;51.778;7.912;2023-06-04T11:11:31;23.00;47.60
32600;DHT22;19277;51.778;7.912;2023-06-04T11:14:10;23.00;47.40
32600;DHT22;19277;51.778;7.912;2023-06-04T11:16:38;23.00;48.00
32600;DHT22;19277;51.778;7.912;2023-06-04T11:19:04;23.00;48.30
32600;DHT22;19277;51.778;7.912;2023-06-04T11:21:29;23.00;47.50
32600;DHT22;19277;51.778;7.912;2023-06-04T11:23:57;23.00;47.40
32600;DHT22;19277;51.778;7.912;2023-06-04T11:26:30;23.00;47.00
32600;DHT22;19277;51.778;7.912;2023-06-04T11:28:55;23.00;47.60
32600;DHT22;19277;51.778;7.912;2023-06-04T11:31:21;23.00;47.20
32600;DHT22;19277;51.778;7.912;2023-06-04T11:33:47;23.00;46.90
32600;DHT22;19277;51.778;7.912;2023-06-04T11:36:27;23.00;47.30
32600;DHT22;19277;51.778;7.912;2023-06-04T11:39:03;23.10;47.40
32600;DHT22;19277;51.778;7.912;2023-06-04T11:41:32;23.10;47.10
32600;DHT22;19277;51.778;7.912;2023-06-04T11:44:03;23.10;46.50
32600;DHT22;19277;51.778;7.912;2023-06-04T11:46:33;23.20;47.20
32600;DHT22;19277;51.778;7.912;2023-06-04T11:48:59;23.20;47.00
32600;DHT22;19277;51.778;7.912;2023-06-04T11:51:26;23.20;46.80
32600;DHT22;19277;51.778;7.912;2023-06-04T11:53:52;23.20;46.80
32600;DHT22;19277;51.778;7.912;2023-06-04T11:56:17;23.20;47.30
32600;DHT22;19277;51.778;7.912;2023-06-04T11:58:43;23.20;47.10
32600;DHT22;19277;51.778;7.912;2023-06-04T12:01:12;23.10;47.10
32600;DHT22;19277;51.778;7.912;2023-06-04T12:03:40;23.20;47.30
32600;DHT22;19277;51.778;7.912;2023-06-04T12:06:17;23.10;47.20
32600;DHT22;19277;51.778;7.912;2023-06-04T12:08:52;23.20;47.00
32600;DHT22;19277;51.778;7.912;2023-06-04T12:11:34;23.20;46.90
32600;DHT22;19277;51.778;7.912;2023-06-04T12:14:06;23.20;47.30
32600;DHT22;19277;51.778;7.912;2023-06-04T12:16:34;23.20;47.20
32600;DHT22;19277;51.778;7.912;2023-06-04T12:19:10;23.20;47.20
32600;DHT22;19277;51.778;7.912;2023-06-04T12:21:37;23.20;47.40
32600;DHT22;19277;51.778;7.912;2023-06-04T12:24:13;23.20;47.40
32600;DHT22;19277;51.778;7.912;2023-06-04T12:26:40;23.20;47.90
32600;DHT22;19277;51.778;7.912;2023-06-04T12:29:15;23.20;48.40
32600;DHT22;19277;51.778;7.912;2023-06-04T12:31:45;23.20;48.00
32600;DHT22;19277;51.778;7.912;2023-06-04T12:34:13;23.20;48.30
32600;DHT22;19277;51.778;7.912;2023-06-04T12:36:38;23.20;47.70
32600;DHT22;19277;51.778;7.912;2023-06-04T12:39:05;23.20;47.90
32600;DHT22;19277;51.778;7.912;2023-06-04T12:41:31;23.20;46.80
32600;DHT22;19277;51.778;7.912;2023-06-04T12:43:59;23.20;47.60
32600;DHT22;19277;51.778;7.912;2023-06-04T12:46:24;23.20;47.10
32600;DHT22;19277;51.778;7.912;2023-06-04T12:48:51;23.20;47.60
32600;DHT22;19277;51.778;7.912;2023-06-04T12:51:17;23.30;47.30
32600;DHT22;19277;51.778;7.912;2023-06-04T12:53:43;23.30;47.80
32600;DHT22;19277;51.778;7.912;2023-06-04T12:56:10;23.30;46.40
32600;DHT22;19277;51.778;7.912;2023-06-04T12:58:36;23.40;46.10
32600;DHT22;19277;51.778;7.912;2023-06-04T13:01:02;23.40;46.00
32600;DHT22;19277;51.778;7.912;2023-06-04T13:03:29;23.40;46.20
32600;DHT22;19277;51.778;7.912;2023-06-04T13:05:55;23.40;46.60
32600;DHT22;19277;51.778;7.912;2023-06-04T13:08:21;23.30;46.70
32600;DHT22;19277;51.778;7.912;2023-06-04T13:10:47;23.30;46.20
32600;DHT22;19277;51.778;7.912;2023-06-04T13:13:14;23.30;46.60
32600;DHT22;19277;51.778;7.912;2023-06-04T13:15:41;23.30;47.70
32600;DHT22;19277;51.778;7.912;2023-06-04T13:18:07;23.30;47.00
32600;DHT22;19277;51.778;7.912;2023-06-04T13:20:33;23.30;47.20
32600;DHT22;19277;51.778;7.912;2023-06-04T13:22:59;23.30;47.50
32600;DHT22;19277;51.778;7.912;2023-06-04T13:25:24;23.30;47.20
32600;DHT22;19277;51.778;7.912;2023-06-04T13:27:50;23.30;46.60
32600;DHT22;19277;51.778;7.912;2023-06-04T13:30:15;23.40;46.40
32600;DHT22;19277;51.778;7.912;2023-06-04T13:32:41;23.40;46.60
32600;DHT22;19277;51.778;7.912;2023-06-04T13:35:07;23.40;46.60
32600;DHT22;19277;51.778;7.912;2023-06-04T13:37:32;23.40;46.60
32600;DHT22;19277;51.778;7.912;2023-06-04T13:39:58;23.50;46.70
32600;DHT22;19277;51.778;7.912;2023-06-04T13:42:23;23.50;47.10
32600;DHT22;19277;51.778;7.912;2023-06-04T13:44:49;23.40;45.90
32600;DHT22;19277;51.778;7.912;2023-06-04T13:47:14;23.40;45.60
32600;DHT22;19277;51.778;7.912;2023-06-04T13:49:40;23.40;45.80
32600;DHT22;19277;51.778;7.912;2023-06-04T13:52:06;23.40;46.00
32600;DHT22;19277;51.778;7.912;2023-06-04T13:54:31;23.40;46.30
32600;DHT22;19277;51.778;7.912;2023-06-04T13:56:57;23.40;45.70
32600;DHT22;19277;51.778;7.912;2023-06-04T13:59:22;23.40;46.00
32600;DHT22;19277;51.778;7.912;2023-06-04T14:01:48;23.40;46.90
32600;DHT22;19277;51.778;7.912;2023-06-04T14:04:14;23.40;46.40
32600;DHT22;19277;51.778;7.912;2023-06-04T14:06:39;23.40;45.90
32600;DHT22;19277;51.778;7.912;2023-06-04T14:09:05;23.50;46.30
32600;DHT22;19277;51.778;7.912;2023-06-04T14:11:34;23.50;46.40
32600;DHT22;19277;51.778;7.912;2023-06-04T14:14:00;23.50;46.50
32600;DHT22;19277;51.778;7.912;2023-06-04T14:16:26;23.50;46.90
32600;DHT22;19277;51.778;7.912;2023-06-04T14:18:51;23.50;47.40
32600;DHT22;19277;51.778;7.912;2023-06-04T14:21:17;23.50;47.50
32600;DHT22;19277;51.778;7.912;2023-06-04T14:23:42;23.50;47.20
32600;DHT22;19277;51.778;7.912;2023-06-04T14:26:08;23.50;47.50
32600;DHT22;19277;51.778;7.912;2023-06-04T14:28:34;23.50;47.60
32600;DHT22;19277;51.778;7.912;2023-06-04T14:31:00;23.50;47.30
32600;DHT22;19277;51.778;7.912;2023-06-04T14:33:25;23.50;47.30
32600;DHT22;19277;51.778;7.912;2023-06-04T14:35:51;23.50;47.60
32600;DHT22;19277;51.778;7.912;2023-06-04T14:38:17;23.50;47.50
32600;DHT22;19277;51.778;7.912;2023-06-04T14:40:42;23.50;47.10
32600;DHT22;19277;51.778;7.912;2023-06-04T14:43:11;23.50;47.00
32600;DHT22;19277;51.778;7.912;2023-06-04T14:45:37;23.60;46.90
32600;DHT22;19277;51.778;7.912;2023-06-04T14:48:06;23.60;46.60
32600;DHT22;19277;51.778;7.912;2023-06-04T14:50:32;23.60;47.40
32600;DHT22;19277;51.778;7.912;2023-06-04T14:52:57;23.70;46.40
32600;DHT22;19277;51.778;7.912;2023-06-04T14:55:24;23.70;47.40
32600;DHT22;19277;51.778;7.912;2023-06-04T14:57:50;23.70;47.60
32600;DHT22;19277;51.778;7.912;2023-06-04T15:00:16;23.60;47.40
32600;DHT22;19277;51.778;7.912;2023-06-04T15:02:42;23.60;48.00
32600;DHT22;19277;51.778;7.912;2023-06-04T15:05:08;23.60;47.70
32600;DHT22;19277;51.778;7.912;2023-06-04T15:07:33;23.60;47.50
32600;DHT22;19277;51.778;7.912;2023-06-04T15:09:59;23.60;47.30
32600;DHT22;19277;51.778;7.912;2023-06-04T15:12:27;23.60;47.60
32600;DHT22;19277;51.778;7.912;2023-06-04T15:14:52;23.60;47.70
32600;DHT22;19277;51.778;7.912;2023-06-04T15:17:18;23.60;47.40
32600;DHT22;19277;51.778;7.912;2023-06-04T15:19:43;23.60;47.30
32600;DHT22;19277;51.778;7.912;2023-06-04T15:22:09;23.60;47.00
32600;DHT22;19277;51.778;7.912;2023-06-04T15:24:34;23.60;46.50
32600;DHT22;19277;51.778;7.912;2023-06-04T15:27:00;23.60;47.30
32600;DHT22;19277;51.778;7.912;2023-06-04T15:29:25;23.60;47.60
32600;DHT22;19277;51.778;7.912;2023-06-04T15:31:52;23.60;47.60
32600;DHT22;19277;51.778;7.912;2023-06-04T15:34:18;23.60;48.30
32600;DHT22;19277;51.778;7.912;2023-06-04T15:36:44;23.60;47.60
32600;DHT22;19277;51.778;7.912;2023-06-04T15:39:11;23.60;48.10
32600;DHT22;19277;51.778;7.912;2023-06-04T15:41:37;23.60;47.70